sensor_id;sensor_type;location;lat;lon;timestamp;pressure;altitude;pressure_sealevel;temperature;humidity
6393;BME280;3229;42.674;23.282;2023-07-09T00:00:47;95076.19;;;19.75;67.80
6393;BME280;3229;42.674;23.282;2023-07-09T00:03:14;95069.78;;;19.71;67.58
6393;BME280;3229;42.674;23.282;2023-07-09T00:05:42;95069.16;;;19.69;67.67
6393;BME280;3229;42.674;23.282;2023-07-09T00:08:24;95062.53;;;19.67;67.57
6393;BME280;3229;42.674;23.282;2023-07-09T00:10:52;95050.84;;;19.56;67.42
6393;BME280;3229;42.674;23.282;2023-07-09T00:13:20;95060.50;;;19.62;67.46
6393;BME280;3229;42.674;23.282;2023-07-09T00:15:47;95052.25;;;19.59;67.53
6393;BME280;3229;42.674;23.282;2023-07-09T00:18:14;95059.44;;;19.57;67.40
6393;BME280;3229;42.674;23.282;2023-07-09T00:20:41;95064.78;;;19.55;67.33
6393;BME280;3229;42.674;23.282;2023-07-09T00:23:08;95053.00;;;19.52;67.31
6393;BME280;3229;42.674;23.282;2023-07-09T00:25:39;95054.59;;;19.53;67.31
6393;BME280;3229;42.674;23.282;2023-07-09T00:28:11;95067.56;;;19.53;67.51
6393;BME280;3229;42.674;23.282;2023-07-09T00:30:40;95056.75;;;19.50;67.36
6393;BME280;3229;42.674;23.282;2023-07-09T00:33:10;95055.94;;;19.49;67.45
6393;BME280;3229;42.674;23.282;2023-07-09T00:35:40;95061.94;;;19.50;67.38
6393;BME280;3229;42.674;23.282;2023-07-09T00:38:17;95058.53;;;19.49;67.32
6393;BME280;3229;42.674;23.282;2023-07-09T00:40:47;95058.28;;;19.44;67.45
6393;BME280;3229;42.674;23.282;2023-07-09T00:43:16;95048.72;;;19.45;67.78
6393;BME280;3229;42.674;23.282;2023-07-09T00:45:44;95049.31;;;19.47;67.61
6393;BME280;3229;42.674;23.282;2023-07-09T00:48:14;95048.09;;;19.43;67.73
6393;BME280;3229;42.674;23.282;2023-07-09T00:50:46;95044.28;;;19.39;67.55
6393;BME280;3229;42.674;23.282;2023-07-09T00:53:17;95018.72;;;19.21;67.69
6393;BME280;3229;42.674;23.282;2023-07-09T00:55:51;95038.66;;;19.35;67.81
6393;BME280;3229;42.674;23.282;2023-07-09T00:58:22;95037.22;;;19.33;67.66
6393;BME280;3229;42.674;23.282;2023-07-09T01:00:55;95036.78;;;19.29;67.65
6393;BME280;3229;42.674;23.282;2023-07-09T01:03:28;95027.38;;;19.28;67.78
6393;BME280;3229;42.674;23.282;2023-07-09T01:05:56;95037.75;;;19.28;67.64
6393;BME280;3229;42.674;23.282;2023-07-09T01:08:24;95038.56;;;19.28;67.63
6393;BME280;3229;42.674;23.282;2023-07-09T01:10:57;95027.50;;;19.20;67.82
6393;BME280;3229;42.674;23.282;2023-07-09T01:13:24;95032.94;;;19.25;67.42
6393;BME280;3229;42.674;23.282;2023-07-09T01:15:53;95040.56;;;19.26;67.42
6393;BME280;3229;42.674;23.282;2023-07-09T01:18:21;95035.38;;;19.26;67.22
6393;BME280;3229;42.674;23.282;2023-07-09T01:20:50;95035.53;;;19.25;67.55
6393;BME280;3229;42.674;23.282;2023-07-09T01:23:19;95033.72;;;19.25;67.62
6393;BME280;3229;42.674;23.282;2023-07-09T01:25:50;95023.75;;;19.22;67.84
6393;BME280;3229;42.674;23.282;2023-07-09T01:28:20;95010.53;;;19.17;67.60
6393;BME280;3229;42.674;23.282;2023-07-09T01:30:47;95014.38;;;19.21;67.54
6393;BME280;3229;42.674;23.282;2023-07-09T01:33:20;95017.91;;;19.20;67.49
6393;BME280;3229;42.674;23.282;2023-07-09T01:35:47;95015.09;;;19.15;67.43
6393;BME280;3229;42.674;23.282;2023-07-09T01:38:14;95018.13;;;19.19;67.47
6393;BME280;3229;42.674;23.282;2023-07-09T01:40:43;95026.69;;;19.19;67.45
6393;BME280;3229;42.674;23.282;2023-07-09T01:43:11;95023.50;;;19.17;67.39
6393;BME280;3229;42.674;23.282;2023-07-09T01:45:38;95030.63;;;19.15;67.53
6393;BME280;3229;42.674;23.282;2023-07-09T01:48:07;95034.84;;;19.16;67.41
6393;BME280;3229;42.674;23.282;2023-07-09T01:50:41;95037.97;;;19.12;67.69
6393;BME280;3229;42.674;23.282;2023-07-09T01:53:09;95030.75;;;19.07;67.72
6393;BME280;3229;42.674;23.282;2023-07-09T01:55:36;95035.94;;;19.07;67.76
6393;BME280;3229;42.674;23.282;2023-07-09T01:58:04;95034.50;;;19.04;67.87
6393;BME280;3229;42.674;23.282;2023-07-09T02:00:32;95038.88;;;19.04;67.79
6393;BME280;3229;42.674;23.282;2023-07-09T02:03:00;95046.38;;;18.99;68.01
6393;BME280;3229;42.674;23.282;2023-07-09T02:05:30;95032.63;;;18.98;68.20
6393;BME280;3229;42.674;23.282;2023-07-09T02:07:57;95043.19;;;18.97;68.31
6393;BME280;3229;42.674;23.282;2023-07-09T02:10:24;95030.59;;;18.94;68.13
6393;BME280;3229;42.674;23.282;2023-07-09T02:12:51;95038.16;;;18.95;68.40
6393;BME280;3229;42.674;23.282;2023-07-09T02:15:20;95032.38;;;18.93;68.40
6393;BME280;3229;42.674;23.282;2023-07-09T02:17:47;95037.75;;;18.92;68.17
6393;BME280;3229;42.674;23.282;2023-07-09T02:20:14;95032.28;;;18.87;68.28
6393;BME280;3229;42.674;23.282;2023-07-09T02:22:41;95032.28;;;18.87;68.30
6393;BME280;3229;42.674;23.282;2023-07-09T02:25:08;95018.81;;;18.76;68.25
6393;BME280;3229;42.674;23.282;2023-07-09T02:27:36;95036.41;;;18.81;68.27
6393;BME280;3229;42.674;23.282;2023-07-09T02:30:04;95046.59;;;18.83;68.55
6393;BME280;3229;42.674;23.282;2023-07-09T02:32:33;95051.34;;;18.79;69.02
6393;BME280;3229;42.674;23.282;2023-07-09T02:34:59;95050.88;;;18.75;68.88
6393;BME280;3229;42.674;23.282;2023-07-09T02:37:26;95041.88;;;18.71;68.87
6393;BME280;3229;42.674;23.282;2023-07-09T02:39:53;95049.44;;;18.73;68.98
6393;BME280;3229;42.674;23.282;2023-07-09T02:42:22;95055.88;;;18.77;68.81
6393;BME280;3229;42.674;23.282;2023-07-09T02:44:49;95060.59;;;18.73;68.90
6393;BME280;3229;42.674;23.282;2023-07-09T02:47:16;95062.25;;;18.74;68.86
6393;BME280;3229;42.674;23.282;2023-07-09T02:49:45;95066.63;;;18.74;69.03
6393;BME280;3229;42.674;23.282;2023-07-09T02:52:12;95062.78;;;18.70;69.09
6393;BME280;3229;42.674;23.282;2023-07-09T02:54:39;95066.50;;;18.67;68.94
6393;BME280;3229;42.674;23.282;2023-07-09T02:57:06;95069.81;;;18.61;69.10
6393;BME280;3229;42.674;23.282;2023-07-09T02:59:33;95075.94;;;18.60;69.23
6393;BME280;3229;42.674;23.282;2023-07-09T03:02:01;95073.00;;;18.63;69.22
6393;BME280;3229;42.674;23.282;2023-07-09T03:04:28;95071.56;;;18.61;69.26
6393;BME280;3229;42.674;23.282;2023-07-09T03:06:58;95082.91;;;18.60;69.08
6393;BME280;3229;42.674;23.282;2023-07-09T03:09:25;95082.91;;;18.60;69.02
6393;BME280;3229;42.674;23.282;2023-07-09T03:11:52;95084.69;;;18.59;69.03
6393;BME280;3229;42.674;23.282;2023-07-09T03:14:19;95078.72;;;18.59;69.04
6393;BME280;3229;42.674;23.282;2023-07-09T03:16:46;95075.16;;;18.60;68.95
6393;BME280;3229;42.674;23.282;2023-07-09T03:19:13;95078.72;;;18.59;69.13
6393;BME280;3229;42.674;23.282;2023-07-09T03:21:39;95081.78;;;18.62;69.30
6393;BME280;3229;42.674;23.282;2023-07-09T03:24:08;95082.13;;;18.59;69.24
6393;BME280;3229;42.674;23.282;2023-07-09T03:26:35;95090.34;;;18.63;69.32
6393;BME280;3229;42.674;23.282;2023-07-09T03:29:02;95087.56;;;18.64;69.03
6393;BME280;3229;42.674;23.282;2023-07-09T03:31:30;95079.97;;;18.63;68.95
6393;BME280;3229;42.674;23.282;2023-07-09T03:34:00;95083.63;;;18.68;68.98
6393;BME280;3229;42.674;23.282;2023-07-09T03:36:27;95088.50;;;18.71;68.86
6393;BME280;3229;42.674;23.282;2023-07-09T03:38:54;95081.72;;;18.70;68.85
6393;BME280;3229;42.674;23.282;2023-07-09T03:41:22;95091.63;;;18.82;68.92
6393;BME280;3229;42.674;23.282;2023-07-09T03:43:49;95084.66;;;18.82;69.10
6393;BME280;3229;42.674;23.282;2023-07-09T03:46:18;95078.66;;;18.82;69.27
6393;BME280;3229;42.674;23.282;2023-07-09T03:48:44;95088.34;;;18.88;69.21
6393;BME280;3229;42.674;23.282;2023-07-09T03:51:11;95089.59;;;18.92;69.51
6393;BME280;3229;42.674;23.282;2023-07-09T03:53:38;95092.44;;;18.97;69.41
6393;BME280;3229;42.674;23.282;2023-07-09T03:56:05;95100.47;;;19.02;69.22
6393;BME280;3229;42.674;23.282;2023-07-09T03:58:33;95062.97;;;18.83;69.48
6393;BME280;3229;42.674;23.282;2023-07-09T04:00:59;95092.59;;;19.10;69.36
6393;BME280;3229;42.674;23.282;2023-07-09T04:03:26;95095.81;;;19.12;69.29
6393;BME280;3229;42.674;23.282;2023-07-09T04:05:53;95089.28;;;19.16;69.15
6393;BME280;3229;42.674;23.282;2023-07-09T04:08:20;95095.47;;;19.15;69.63
6393;BME280;3229;42.674;23.282;2023-07-09T04:10:46;95099.56;;;19.24;69.33
6393;BME280;3229;42.674;23.282;2023-07-09T04:13:13;95097.75;;;19.25;69.84
6393;BME280;3229;42.674;23.282;2023-07-09T04:15:41;95104.84;;;19.31;69.83
6393;BME280;3229;42.674;23.282;2023-07-09T04:18:08;95108.47;;;19.37;69.60
6393;BME280;3229;42.674;23.282;2023-07-09T04:20:35;95109.72;;;19.41;69.24
6393;BME280;3229;42.674;23.282;2023-07-09T04:23:02;95107.59;;;19.44;68.66
6393;BME280;3229;42.674;23.282;2023-07-09T04:25:29;95113.91;;;19.57;68.60
6393;BME280;3229;42.674;23.282;2023-07-09T04:27:57;95121.63;;;19.65;68.05
6393;BME280;3229;42.674;23.282;2023-07-09T04:30:25;95112.28;;;19.70;68.34
6393;BME280;3229;42.674;23.282;2023-07-09T04:32:56;95117.19;;;19.80;68.36
6393;BME280;3229;42.674;23.282;2023-07-09T04:35:23;95112.66;;;19.89;68.02
6393;BME280;3229;42.674;23.282;2023-07-09T04:37:50;95122.94;;;19.97;67.64
6393;BME280;3229;42.674;23.282;2023-07-09T04:40:18;95102.16;;;19.97;67.21
6393;BME280;3229;42.674;23.282;2023-07-09T04:42:45;95127.94;;;20.20;67.12
6393;BME280;3229;42.674;23.282;2023-07-09T04:45:12;95110.56;;;20.20;66.74
6393;BME280;3229;42.674;23.282;2023-07-09T04:47:39;95128.72;;;20.42;66.31
6393;BME280;3229;42.674;23.282;2023-07-09T04:50:08;95122.63;;;20.49;66.42
6393;BME280;3229;42.674;23.282;2023-07-09T04:52:36;95122.50;;;20.58;65.27
6393;BME280;3229;42.674;23.282;2023-07-09T04:55:03;95123.53;;;20.63;64.84
6393;BME280;3229;42.674;23.282;2023-07-09T04:57:30;95124.81;;;20.74;64.26
6393;BME280;3229;42.674;23.282;2023-07-09T04:59:57;95125.47;;;20.83;63.62
6393;BME280;3229;42.674;23.282;2023-07-09T05:02:24;95126.91;;;20.92;63.46
6393;BME280;3229;42.674;23.282;2023-07-09T05:04:51;95131.34;;;20.98;62.73
6393;BME280;3229;42.674;23.282;2023-07-09T05:07:19;95122.16;;;21.02;63.05
6393;BME280;3229;42.674;23.282;2023-07-09T05:09:46;95142.28;;;21.21;62.29
6393;BME280;3229;42.674;23.282;2023-07-09T05:12:13;95119.38;;;21.38;60.96
6393;BME280;3229;42.674;23.282;2023-07-09T05:14:40;95131.53;;;21.79;60.58
6393;BME280;3229;42.674;23.282;2023-07-09T05:17:07;95141.66;;;22.22;60.14
6393;BME280;3229;42.674;23.282;2023-07-09T05:19:35;95142.47;;;22.62;59.30
6393;BME280;3229;42.674;23.282;2023-07-09T05:22:02;95130.63;;;22.86;58.15
6393;BME280;3229;42.674;23.282;2023-07-09T05:24:31;95144.06;;;23.23;57.74
6393;BME280;3229;42.674;23.282;2023-07-09T05:26:57;95140.00;;;23.34;56.82
6393;BME280;3229;42.674;23.282;2023-07-09T05:29:25;95140.16;;;23.39;56.19
6393;BME280;3229;42.674;23.282;2023-07-09T05:31:52;95128.91;;;23.45;56.69
6393;BME280;3229;42.674;23.282;2023-07-09T05:34:19;95123.38;;;23.73;54.99
6393;BME280;3229;42.674;23.282;2023-07-09T05:36:46;95139.13;;;23.98;54.69
6393;BME280;3229;42.674;23.282;2023-07-09T05:39:13;95145.50;;;24.09;54.61
6393;BME280;3229;42.674;23.282;2023-07-09T05:41:43;95141.97;;;24.28;55.93
6393;BME280;3229;42.674;23.282;2023-07-09T05:44:09;95139.94;;;24.62;53.84
6393;BME280;3229;42.674;23.282;2023-07-09T05:46:37;95115.75;;;24.66;52.22
6393;BME280;3229;42.674;23.282;2023-07-09T05:49:04;95137.97;;;25.00;53.10
6393;BME280;3229;42.674;23.282;2023-07-09T05:51:31;95138.31;;;25.29;51.70
6393;BME280;3229;42.674;23.282;2023-07-09T05:53:58;95140.13;;;25.65;50.96
6393;BME280;3229;42.674;23.282;2023-07-09T05:56:25;95144.06;;;26.05;50.49
6393;BME280;3229;42.674;23.282;2023-07-09T05:58:53;95147.34;;;26.42;50.15
6393;BME280;3229;42.674;23.282;2023-07-09T06:01:22;95131.78;;;26.70;48.43
6393;BME280;3229;42.674;23.282;2023-07-09T06:03:48;95153.47;;;27.01;47.71
6393;BME280;3229;42.674;23.282;2023-07-09T06:06:15;95151.94;;;27.12;47.77
6393;BME280;3229;42.674;23.282;2023-07-09T06:08:42;95149.38;;;27.29;46.32
6393;BME280;3229;42.674;23.282;2023-07-09T06:11:09;95156.13;;;27.13;46.20
6393;BME280;3229;42.674;23.282;2023-07-09T06:13:36;95150.50;;;26.97;46.06
6393;BME280;3229;42.674;23.282;2023-07-09T06:16:05;95141.97;;;26.90;46.87
6393;BME280;3229;42.674;23.282;2023-07-09T06:18:31;95143.22;;;27.11;46.75
6393;BME280;3229;42.674;23.282;2023-07-09T06:21:01;95132.38;;;27.19;46.26
6393;BME280;3229;42.674;23.282;2023-07-09T06:23:28;95116.59;;;27.31;46.30
6393;BME280;3229;42.674;23.282;2023-07-09T06:25:55;95125.34;;;27.48;45.89
6393;BME280;3229;42.674;23.282;2023-07-09T06:28:23;95129.09;;;27.64;45.63
6393;BME280;3229;42.674;23.282;2023-07-09T06:30:51;95124.38;;;27.78;44.90
6393;BME280;3229;42.674;23.282;2023-07-09T06:33:20;95134.28;;;27.88;45.55
6393;BME280;3229;42.674;23.282;2023-07-09T06:35:47;95135.00;;;28.12;45.07
6393;BME280;3229;42.674;23.282;2023-07-09T06:38:14;95137.13;;;28.43;45.51
6393;BME280;3229;42.674;23.282;2023-07-09T06:40:41;95133.13;;;28.74;43.35
6393;BME280;3229;42.674;23.282;2023-07-09T06:43:08;95135.16;;;28.67;43.26
6393;BME280;3229;42.674;23.282;2023-07-09T06:45:35;95129.50;;;28.59;43.93
6393;BME280;3229;42.674;23.282;2023-07-09T06:48:02;95126.44;;;28.67;43.80
6393;BME280;3229;42.674;23.282;2023-07-09T06:50:33;95126.13;;;28.80;43.68
6393;BME280;3229;42.674;23.282;2023-07-09T06:53:00;95129.31;;;28.99;43.72
6393;BME280;3229;42.674;23.282;2023-07-09T06:55:27;95128.63;;;29.25;43.05
6393;BME280;3229;42.674;23.282;2023-07-09T06:57:54;95130.78;;;29.50;41.94
6393;BME280;3229;42.674;23.282;2023-07-09T07:00:21;95127.34;;;29.50;41.59
6393;BME280;3229;42.674;23.282;2023-07-09T07:02:47;95123.59;;;29.46;41.96
6393;BME280;3229;42.674;23.282;2023-07-09T07:05:14;95130.44;;;29.64;41.90
6393;BME280;3229;42.674;23.282;2023-07-09T07:07:43;95129.88;;;29.84;41.36
6393;BME280;3229;42.674;23.282;2023-07-09T07:10:10;95118.56;;;29.88;41.56
6393;BME280;3229;42.674;23.282;2023-07-09T07:12:42;95129.00;;;30.05;40.57
6393;BME280;3229;42.674;23.282;2023-07-09T07:15:10;95121.31;;;29.98;40.57
6393;BME280;3229;42.674;23.282;2023-07-09T07:17:37;95130.81;;;29.99;40.46
6393;BME280;3229;42.674;23.282;2023-07-09T07:20:05;95125.84;;;30.03;39.47
6393;BME280;3229;42.674;23.282;2023-07-09T07:22:32;95121.25;;;29.93;39.89
6393;BME280;3229;42.674;23.282;2023-07-09T07:25:00;95118.38;;;29.95;40.24
6393;BME280;3229;42.674;23.282;2023-07-09T07:27:27;95116.88;;;30.04;40.49
6393;BME280;3229;42.674;23.282;2023-07-09T07:29:53;95114.56;;;30.13;40.51
6393;BME280;3229;42.674;23.282;2023-07-09T07:32:20;95125.00;;;30.24;40.52
6393;BME280;3229;42.674;23.282;2023-07-09T07:34:47;95119.28;;;30.33;40.17
6393;BME280;3229;42.674;23.282;2023-07-09T07:37:14;95120.13;;;30.38;39.17
6393;BME280;3229;42.674;23.282;2023-07-09T07:39:42;95110.34;;;30.39;39.21
6393;BME280;3229;42.674;23.282;2023-07-09T07:42:10;95103.75;;;30.36;39.19
6393;BME280;3229;42.674;23.282;2023-07-09T07:44:37;95115.00;;;30.27;39.66
6393;BME280;3229;42.674;23.282;2023-07-09T07:47:04;95113.94;;;30.22;38.98
6393;BME280;3229;42.674;23.282;2023-07-09T07:49:31;95110.72;;;30.20;39.06
6393;BME280;3229;42.674;23.282;2023-07-09T07:51:58;95116.78;;;30.21;39.68
6393;BME280;3229;42.674;23.282;2023-07-09T07:54:28;95117.84;;;30.20;39.92
6393;BME280;3229;42.674;23.282;2023-07-09T07:56:56;95111.22;;;30.17;39.96
6393;BME280;3229;42.674;23.282;2023-07-09T07:59:24;95114.28;;;30.09;39.79
6393;BME280;3229;42.674;23.282;2023-07-09T08:01:51;95101.09;;;30.09;39.41
6393;BME280;3229;42.674;23.282;2023-07-09T08:04:18;95107.63;;;30.29;39.77
6393;BME280;3229;42.674;23.282;2023-07-09T08:06:45;95103.53;;;30.43;39.94
6393;BME280;3229;42.674;23.282;2023-07-09T08:09:12;95101.75;;;30.48;39.85
6393;BME280;3229;42.674;23.282;2023-07-09T08:11:38;95097.94;;;30.39;39.84
6393;BME280;3229;42.674;23.282;2023-07-09T08:14:05;95101.19;;;30.46;39.61
6393;BME280;3229;42.674;23.282;2023-07-09T08:16:33;95103.06;;;30.51;38.69
6393;BME280;3229;42.674;23.282;2023-07-09T08:19:00;95103.81;;;30.46;39.10
6393;BME280;3229;42.674;23.282;2023-07-09T08:21:27;95104.28;;;30.38;39.08
6393;BME280;3229;42.674;23.282;2023-07-09T08:23:54;95102.66;;;30.32;38.50
6393;BME280;3229;42.674;23.282;2023-07-09T08:26:20;95089.50;;;30.10;39.17
6393;BME280;3229;42.674;23.282;2023-07-09T08:28:49;95099.19;;;30.05;40.00
6393;BME280;3229;42.674;23.282;2023-07-09T08:31:16;95099.41;;;29.98;40.43
6393;BME280;3229;42.674;23.282;2023-07-09T08:33:44;95100.75;;;30.00;40.51
6393;BME280;3229;42.674;23.282;2023-07-09T08:36:11;95097.91;;;30.07;40.83
6393;BME280;3229;42.674;23.282;2023-07-09T08:38:38;95038.56;;;29.78;40.15
6393;BME280;3229;42.674;23.282;2023-07-09T08:41:08;95106.19;;;30.16;40.06
6393;BME280;3229;42.674;23.282;2023-07-09T08:43:58;95101.44;;;30.18;40.02
6393;BME280;3229;42.674;23.282;2023-07-09T08:46:34;95096.38;;;30.11;40.18
6393;BME280;3229;42.674;23.282;2023-07-09T08:49:14;95095.69;;;30.21;39.85
6393;BME280;3229;42.674;23.282;2023-07-09T08:51:43;95087.56;;;30.28;39.91
6393;BME280;3229;42.674;23.282;2023-07-09T08:54:15;95096.59;;;30.32;39.84
6393;BME280;3229;42.674;23.282;2023-07-09T08:56:45;95098.91;;;30.28;39.58
6393;BME280;3229;42.674;23.282;2023-07-09T08:59:14;95096.69;;;30.15;40.08
6393;BME280;3229;42.674;23.282;2023-07-09T09:01:49;95100.91;;;30.16;39.82
6393;BME280;3229;42.674;23.282;2023-07-09T09:04:23;95100.22;;;30.26;39.84
6393;BME280;3229;42.674;23.282;2023-07-09T09:06:56;95099.97;;;30.27;39.38
6393;BME280;3229;42.674;23.282;2023-07-09T09:09:30;95089.88;;;30.19;40.10
6393;BME280;3229;42.674;23.282;2023-07-09T09:12:07;95069.72;;;30.13;40.14
6393;BME280;3229;42.674;23.282;2023-07-09T09:14:41;95100.81;;;30.33;39.61
6393;BME280;3229;42.674;23.282;2023-07-09T09:17:12;95098.31;;;30.21;39.87
6393;BME280;3229;42.674;23.282;2023-07-09T09:19:45;95090.78;;;30.08;40.32
6393;BME280;3229;42.674;23.282;2023-07-09T09:22:15;95096.44;;;30.16;40.79
6393;BME280;3229;42.674;23.282;2023-07-09T09:24:53;95094.69;;;30.27;39.91
6393;BME280;3229;42.674;23.282;2023-07-09T09:27:21;95093.69;;;30.06;39.96
6393;BME280;3229;42.674;23.282;2023-07-09T09:29:48;95095.38;;;29.90;39.99
6393;BME280;3229;42.674;23.282;2023-07-09T09:32:21;95094.22;;;29.81;40.60
6393;BME280;3229;42.674;23.282;2023-07-09T09:34:51;95088.97;;;29.81;40.60
6393;BME280;3229;42.674;23.282;2023-07-09T09:37:26;95091.28;;;29.78;40.45
6393;BME280;3229;42.674;23.282;2023-07-09T09:39:53;95090.69;;;29.70;40.39
6393;BME280;3229;42.674;23.282;2023-07-09T09:42:20;95087.75;;;29.67;40.95
6393;BME280;3229;42.674;23.282;2023-07-09T09:44:49;95079.09;;;29.71;40.81
6393;BME280;3229;42.674;23.282;2023-07-09T09:47:16;95075.88;;;29.64;40.86
6393;BME280;3229;42.674;23.282;2023-07-09T09:49:43;95037.56;;;29.35;41.17
6393;BME280;3229;42.674;23.282;2023-07-09T09:52:13;95069.31;;;29.67;41.90
6393;BME280;3229;42.674;23.282;2023-07-09T09:54:43;95073.63;;;29.78;40.87
6393;BME280;3229;42.674;23.282;2023-07-09T09:57:16;95081.31;;;29.80;40.13
6393;BME280;3229;42.674;23.282;2023-07-09T09:59:45;95076.59;;;29.60;40.65
6393;BME280;3229;42.674;23.282;2023-07-09T10:02:16;95065.31;;;29.42;41.19
6393;BME280;3229;42.674;23.282;2023-07-09T10:04:43;95080.34;;;29.42;40.63
6393;BME280;3229;42.674;23.282;2023-07-09T10:07:18;95054.16;;;29.35;40.38
6393;BME280;3229;42.674;23.282;2023-07-09T10:09:49;95061.63;;;29.21;40.37
6393;BME280;3229;42.674;23.282;2023-07-09T10:12:30;95065.84;;;29.00;40.75
6393;BME280;3229;42.674;23.282;2023-07-09T10:15:11;95061.22;;;28.91;41.45
6393;BME280;3229;42.674;23.282;2023-07-09T10:17:47;95065.88;;;28.67;41.19
6393;BME280;3229;42.674;23.282;2023-07-09T10:20:23;95060.97;;;28.54;42.03
6393;BME280;3229;42.674;23.282;2023-07-09T10:22:55;95055.53;;;28.60;42.40
6393;BME280;3229;42.674;23.282;2023-07-09T10:25:35;95054.94;;;28.75;42.79
6393;BME280;3229;42.674;23.282;2023-07-09T10:28:20;95062.22;;;28.85;43.28
6393;BME280;3229;42.674;23.282;2023-07-09T10:30:57;95061.38;;;29.01;41.61
6393;BME280;3229;42.674;23.282;2023-07-09T10:33:36;95060.09;;;29.04;40.88
6393;BME280;3229;42.674;23.282;2023-07-09T10:36:24;95049.81;;;29.02;40.63
6393;BME280;3229;42.674;23.282;2023-07-09T10:39:00;95021.50;;;28.75;41.70
6393;BME280;3229;42.674;23.282;2023-07-09T10:41:30;95049.97;;;28.95;42.11
6393;BME280;3229;42.674;23.282;2023-07-09T10:44:01;95054.59;;;29.05;41.95
6393;BME280;3229;42.674;23.282;2023-07-09T10:46:33;95041.78;;;29.14;41.17
6393;BME280;3229;42.674;23.282;2023-07-09T10:49:01;95035.84;;;29.23;40.97
6393;BME280;3229;42.674;23.282;2023-07-09T10:51:33;95046.19;;;29.30;39.63
6393;BME280;3229;42.674;23.282;2023-07-09T10:54:09;95044.72;;;29.17;40.18
6393;BME280;3229;42.674;23.282;2023-07-09T10:56:40;95047.78;;;29.09;40.38
6393;BME280;3229;42.674;23.282;2023-07-09T10:59:21;95053.84;;;29.10;40.31
6393;BME280;3229;42.674;23.282;2023-07-09T11:01:54;95028.66;;;28.97;40.12
6393;BME280;3229;42.674;23.282;2023-07-09T11:04:29;95045.88;;;29.05;40.05
6393;BME280;3229;42.674;23.282;2023-07-09T11:07:00;95051.84;;;29.17;38.77
6393;BME280;3229;42.674;23.282;2023-07-09T11:09:35;95044.94;;;29.11;39.50
6393;BME280;3229;42.674;23.282;2023-07-09T11:12:08;95041.66;;;29.04;39.66
6393;BME280;3229;42.674;23.282;2023-07-09T11:14:41;95047.31;;;29.12;39.41
6393;BME280;3229;42.674;23.282;2023-07-09T11:17:17;95038.25;;;29.03;39.24
6393;BME280;3229;42.674;23.282;2023-07-09T11:19:46;95042.53;;;28.92;39.22
6393;BME280;3229;42.674;23.282;2023-07-09T11:22:20;95055.66;;;28.87;40.37
6393;BME280;3229;42.674;23.282;2023-07-09T11:24:51;95032.50;;;28.89;40.11
6393;BME280;3229;42.674;23.282;2023-07-09T11:27:21;95023.81;;;28.89;40.62
6393;BME280;3229;42.674;23.282;2023-07-09T11:29:56;95044.94;;;29.11;39.56
6393;BME280;3229;42.674;23.282;2023-07-09T11:32:24;95009.78;;;28.83;39.32
6393;BME280;3229;42.674;23.282;2023-07-09T11:34:51;95036.66;;;29.02;39.87
6393;BME280;3229;42.674;23.282;2023-07-09T11:37:20;95043.19;;;28.99;40.25
6393;BME280;3229;42.674;23.282;2023-07-09T11:39:52;95032.00;;;28.92;39.69
6393;BME280;3229;42.674;23.282;2023-07-09T11:42:27;95034.88;;;28.91;40.46
6393;BME280;3229;42.674;23.282;2023-07-09T11:45:00;95022.78;;;28.90;40.73
6393;BME280;3229;42.674;23.282;2023-07-09T11:47:32;95022.50;;;29.08;40.06
6393;BME280;3229;42.674;23.282;2023-07-09T11:50:03;95023.59;;;29.12;39.78
6393;BME280;3229;42.674;23.282;2023-07-09T11:52:34;95028.13;;;29.17;40.50
6393;BME280;3229;42.674;23.282;2023-07-09T11:55:18;95020.47;;;29.15;40.25
6393;BME280;3229;42.674;23.282;2023-07-09T11:57:47;95025.88;;;29.04;40.82
6393;BME280;3229;42.674;23.282;2023-07-09T12:00:15;95020.03;;;29.02;40.49
6393;BME280;3229;42.674;23.282;2023-07-09T12:02:42;95013.97;;;29.01;40.88
6393;BME280;3229;42.674;23.282;2023-07-09T12:05:09;95015.38;;;29.09;41.33
6393;BME280;3229;42.674;23.282;2023-07-09T12:07:36;95012.81;;;29.14;40.73
6393;BME280;3229;42.674;23.282;2023-07-09T12:10:18;95016.06;;;29.21;41.02
6393;BME280;3229;42.674;23.282;2023-07-09T12:12:46;95020.22;;;29.17;41.10
6393;BME280;3229;42.674;23.282;2023-07-09T12:15:17;95016.44;;;29.08;40.84
6393;BME280;3229;42.674;23.282;2023-07-09T12:17:52;95016.38;;;29.03;41.01
6393;BME280;3229;42.674;23.282;2023-07-09T12:20:19;95017.13;;;28.98;40.74
6393;BME280;3229;42.674;23.282;2023-07-09T12:22:46;95023.19;;;28.98;40.76
6393;BME280;3229;42.674;23.282;2023-07-09T12:25:22;95017.56;;;28.95;41.15
6393;BME280;3229;42.674;23.282;2023-07-09T12:27:50;95012.56;;;28.93;40.64
6393;BME280;3229;42.674;23.282;2023-07-09T12:30:17;94998.50;;;28.88;40.41
6393;BME280;3229;42.674;23.282;2023-07-09T12:32:45;95007.09;;;28.78;41.09
6393;BME280;3229;42.674;23.282;2023-07-09T12:35:13;95011.63;;;28.83;41.22
6393;BME280;3229;42.674;23.282;2023-07-09T12:37:41;95011.63;;;28.83;41.18
6393;BME280;3229;42.674;23.282;2023-07-09T12:40:14;94997.72;;;28.87;41.93
6393;BME280;3229;42.674;23.282;2023-07-09T12:42:43;94999.91;;;28.95;40.95
6393;BME280;3229;42.674;23.282;2023-07-09T12:45:15;94998.69;;;28.98;41.63
6393;BME280;3229;42.674;23.282;2023-07-09T12:47:45;94990.44;;;28.94;41.48
6393;BME280;3229;42.674;23.282;2023-07-09T12:50:26;94995.13;;;28.92;41.21
6393;BME280;3229;42.674;23.282;2023-07-09T12:52:55;94992.44;;;28.87;41.05
6393;BME280;3229;42.674;23.282;2023-07-09T12:55:25;94990.97;;;28.74;41.18
6393;BME280;3229;42.674;23.282;2023-07-09T12:57:55;94995.91;;;28.71;41.45
6393;BME280;3229;42.674;23.282;2023-07-09T13:00:22;94993.84;;;28.73;41.58
6393;BME280;3229;42.674;23.282;2023-07-09T13:02:54;94989.38;;;28.73;41.76
6393;BME280;3229;42.674;23.282;2023-07-09T13:05:22;94988.34;;;28.74;42.50
6393;BME280;3229;42.674;23.282;2023-07-09T13:07:51;94918.88;;;28.37;42.09
6393;BME280;3229;42.674;23.282;2023-07-09T13:10:19;94981.38;;;28.85;42.59
6393;BME280;3229;42.674;23.282;2023-07-09T13:12:50;94980.06;;;28.88;43.02
6393;BME280;3229;42.674;23.282;2023-07-09T13:15:29;94986.53;;;28.97;42.67
6393;BME280;3229;42.674;23.282;2023-07-09T13:18:01;94985.97;;;28.95;42.26
6393;BME280;3229;42.674;23.282;2023-07-09T13:20:31;94999.88;;;28.90;42.66